createdAt,value
2023-05-05T00:02:50.612Z,58.92
2023-05-05T00:07:54.233Z,59.04
2023-05-05T00:12:57.221Z,59.37
2023-05-05T00:18:00.257Z,58.82
2023-05-05T00:23:04.166Z,58.96
2023-05-05T00:28:07.116Z,58.86
2023-05-05T00:33:10.193Z,59.47
2023-05-05T00:38:13.171Z,58.89
2023-05-05T00:43:16.203Z,58.29
2023-05-05T00:48:19.624Z,58.64
2023-05-05T00:53:23.276Z,58.58
2023-05-05T00:58:26.095Z,58.38
2023-05-05T01:03:29.131Z,58.75
2023-05-05T01:09:20.147Z,58.58
2023-05-05T01:14:53.068Z,58.88
2023-05-05T01:20:21.671Z,58.25
2023-05-05T01:26:12.450Z,57.54
2023-05-05T01:31:32.047Z,58.00
2023-05-05T01:36:42.372Z,57.44
2023-05-05T01:41:54.339Z,57.65
2023-05-05T01:46:59.656Z,57.84
2023-05-05T01:52:05.107Z,58.05
2023-05-05T01:57:10.185Z,58.10
2023-05-05T02:02:15.755Z,58.03
2023-05-05T02:07:21.177Z,57.98
2023-05-05T02:12:24.170Z,57.83
2023-05-05T02:17:27.829Z,57.70
2023-05-05T02:22:31.724Z,57.83
2023-05-05T02:27:36.218Z,58.12
2023-05-05T02:32:53.961Z,58.32
2023-05-05T02:38:02.877Z,58.97
2023-05-05T02:43:10.031Z,59.08
2023-05-05T02:48:13.299Z,59.01
2023-05-05T02:53:16.648Z,60.15
2023-05-05T02:58:33.355Z,60.36
2023-05-05T03:03:47.568Z,60.61
2023-05-05T03:08:56.905Z,60.65
2023-05-05T03:14:13.371Z,60.81
2023-05-05T03:19:20.406Z,60.55
2023-05-05T03:24:23.471Z,60.69
2023-05-05T03:29:26.835Z,60.88
2023-05-05T03:34:29.804Z,60.76
2023-05-05T03:39:32.768Z,61.07
2023-05-05T03:44:35.704Z,60.90
2023-05-05T03:49:38.674Z,60.78
2023-05-05T03:54:42.586Z,60.33
2023-05-05T03:59:45.731Z,60.88
2023-05-05T04:04:48.735Z,61.62
2023-05-05T04:09:51.868Z,62.16
2023-05-05T04:14:54.892Z,62.14
2023-05-05T04:19:57.861Z,61.68
2023-05-05T04:25:01.344Z,60.28
2023-05-05T04:30:05.150Z,59.77
2023-05-05T04:35:08.600Z,59.81
2023-05-05T04:40:12.095Z,60.83
2023-05-05T04:45:15.322Z,61.15
2023-05-05T04:50:18.332Z,61.10
2023-05-05T04:55:21.479Z,60.55
2023-05-05T05:00:24.587Z,60.40
2023-05-05T05:05:27.561Z,60.58
2023-05-05T05:10:30.559Z,60.77
2023-05-05T05:15:33.586Z,60.72
2023-05-05T05:20:36.564Z,60.40
2023-05-05T05:25:39.553Z,60.34
2023-05-05T05:30:42.519Z,60.14
2023-05-05T05:35:45.746Z,60.59
2023-05-05T05:40:48.673Z,60.77
2023-05-05T05:45:52.104Z,60.32
2023-05-05T05:50:56.466Z,59.40
2023-05-05T05:55:59.464Z,59.07
2023-05-05T06:01:04.129Z,58.18
2023-05-05T06:06:07.698Z,58.08
2023-05-05T06:11:10.843Z,58.06
2023-05-05T06:16:13.816Z,57.47
2023-05-05T06:21:16.851Z,56.74
2023-05-05T06:26:19.875Z,56.23
2023-05-05T06:31:22.961Z,55.43
2023-05-05T06:36:26.372Z,54.97
2023-05-05T06:41:29.302Z,55.37
2023-05-05T06:46:32.288Z,54.90
2023-05-05T06:51:35.626Z,55.03
2023-05-05T06:56:38.587Z,54.25
2023-05-05T07:01:41.646Z,53.57
2023-05-05T07:06:44.631Z,53.44
2023-05-05T07:11:47.599Z,53.01
2023-05-05T07:16:50.598Z,51.79
2023-05-05T07:21:53.601Z,52.83
2023-05-05T07:26:58.145Z,52.38
2023-05-05T07:32:01.122Z,51.58
2023-05-05T07:37:05.327Z,50.14
2023-05-05T07:42:08.479Z,49.10
2023-05-05T07:47:11.506Z,48.92
2023-05-05T07:52:14.491Z,48.26
2023-05-05T07:57:17.531Z,48.33
2023-05-05T08:02:23.046Z,45.83
2023-05-05T08:07:26.098Z,45.40
2023-05-05T08:12:32.165Z,43.83
2023-05-05T08:17:49.786Z,43.74
2023-05-05T08:22:52.726Z,42.70
2023-05-05T08:27:55.782Z,42.19
2023-05-05T08:32:59.436Z,41.83
2023-05-05T08:38:02.472Z,41.72
2023-05-05T08:43:06.012Z,40.89
2023-05-05T08:48:10.282Z,39.85
2023-05-05T08:53:17.839Z,38.88
2023-05-05T08:58:26.981Z,38.82
2023-05-05T09:03:32.326Z,38.07
2023-05-05T09:08:37.436Z,40.10
2023-05-05T09:19:05.097Z,39.81
2023-05-05T09:24:13.446Z,40.25
2023-05-05T09:29:21.387Z,39.65
2023-05-05T09:34:24.454Z,38.71
2023-05-05T09:39:27.533Z,38.65
2023-05-05T09:44:36.420Z,37.03
2023-05-05T09:49:39.513Z,37.60
2023-05-05T09:54:43.795Z,38.54
2023-05-05T09:59:58.274Z,39.52
2023-05-05T10:05:18.322Z,40.10
2023-05-05T10:10:21.566Z,39.86
2023-05-05T10:15:24.675Z,39.95
2023-05-05T10:20:27.990Z,39.31
2023-05-05T10:25:38.493Z,38.46
2023-05-05T10:30:46.419Z,39.23
2023-05-05T10:35:53.624Z,37.80
2023-05-05T10:40:59.277Z,37.64
2023-05-05T10:46:02.794Z,37.03
2023-05-05T10:51:31.119Z,36.63
2023-05-05T10:56:43.016Z,37.02
2023-05-05T11:01:46.051Z,35.24
2023-05-05T11:07:14.743Z,34.71
2023-05-05T11:12:18.203Z,36.06
2023-05-05T11:17:47.781Z,35.55
2023-05-05T11:23:02.780Z,35.59
2023-05-05T11:28:25.663Z,35.12
2023-05-05T11:33:33.525Z,36.61
2023-05-05T11:38:36.438Z,36.07
2023-05-05T11:43:41.847Z,35.90
2023-05-05T11:48:46.479Z,35.43
2023-05-05T11:53:50.977Z,34.89
2023-05-05T11:59:11.295Z,34.97
2023-05-05T12:04:16.178Z,34.42
2023-05-05T12:09:21.588Z,34.32
2023-05-05T12:14:26.079Z,34.17
2023-05-05T12:19:33.156Z,33.78
2023-05-05T12:24:36.249Z,34.32
2023-05-05T12:29:39.425Z,34.82
2023-05-05T12:34:42.314Z,35.15
2023-05-05T12:39:45.666Z,35.47
2023-05-05T12:44:49.336Z,35.97
2023-05-05T12:49:52.950Z,35.85
2023-05-05T12:54:57.919Z,36.26
2023-05-05T13:00:13.622Z,36.72
2023-05-05T13:05:28.914Z,36.94
2023-05-05T13:10:31.922Z,36.88
2023-05-05T13:15:35.028Z,36.72
2023-05-05T13:20:37.878Z,35.89
2023-05-05T13:25:40.740Z,35.37
2023-05-05T13:30:43.551Z,35.97
2023-05-05T13:35:46.423Z,35.38
2023-05-05T13:40:49.327Z,35.97
2023-05-05T13:45:53.628Z,36.11
2023-05-05T13:50:56.680Z,36.08
2023-05-05T13:55:59.804Z,36.56
2023-05-05T14:01:03.358Z,36.55
2023-05-05T14:06:07.615Z,36.39
2023-05-05T14:11:10.795Z,36.41
2023-05-05T14:16:14.059Z,36.24
2023-05-05T14:21:17.049Z,36.57
2023-05-05T14:26:20.040Z,36.48
2023-05-05T14:31:23.170Z,35.80
2023-05-05T14:36:26.980Z,36.05
2023-05-05T14:41:29.953Z,36.23
2023-05-05T14:46:33.635Z,35.83
2023-05-05T14:51:36.560Z,35.89
2023-05-05T14:56:39.575Z,35.91
2023-05-05T15:01:42.612Z,36.03
2023-05-05T15:06:45.793Z,35.82
2023-05-05T15:11:48.681Z,36.03
2023-05-05T15:16:51.824Z,35.75
2023-05-05T15:21:55.570Z,36.44
2023-05-05T15:26:58.549Z,36.70
2023-05-05T15:32:01.562Z,36.72
2023-05-05T15:37:04.544Z,36.96
2023-05-05T15:42:07.583Z,37.13
2023-05-05T15:47:11.004Z,37.73
2023-05-05T15:52:14.128Z,37.88
2023-05-05T15:57:21.579Z,37.48
2023-05-05T16:02:25.070Z,37.11
2023-05-05T16:07:28.099Z,37.95
2023-05-05T16:12:31.258Z,37.98
2023-05-05T16:17:34.136Z,37.92
2023-05-05T16:22:37.075Z,38.44
2023-05-05T16:27:39.905Z,39.42
2023-05-05T16:32:43.116Z,41.01
2023-05-05T16:37:49.085Z,42.35
2023-05-05T16:42:52.021Z,43.31
2023-05-05T16:47:57.730Z,43.86
2023-05-05T16:53:00.821Z,44.57
2023-05-05T16:58:04.726Z,44.72
2023-05-05T17:03:07.657Z,45.25
2023-05-05T17:08:14.174Z,45.63
2023-05-05T17:13:17.277Z,45.85
2023-05-05T17:18:22.778Z,46.01
2023-05-05T17:23:25.752Z,46.38
2023-05-05T17:28:28.712Z,46.95
2023-05-05T17:33:31.682Z,46.64
2023-05-05T17:38:34.690Z,46.71
2023-05-05T17:43:37.682Z,46.91
2023-05-05T17:48:40.675Z,47.03
2023-05-05T17:53:43.704Z,47.50
2023-05-05T17:58:46.730Z,47.80
2023-05-05T18:03:50.261Z,47.93
2023-05-05T18:08:53.088Z,48.30
2023-05-05T18:13:56.333Z,48.51
2023-05-05T18:18:59.296Z,48.75
2023-05-05T18:24:15.721Z,48.93
2023-05-05T18:29:22.913Z,48.69
2023-05-05T18:34:26.364Z,48.94
2023-05-05T18:39:32.326Z,49.05
2023-05-05T18:44:35.752Z,49.27
2023-05-05T18:49:38.621Z,49.12
2023-05-05T18:54:41.560Z,49.51
2023-05-05T18:59:44.607Z,49.67
2023-05-05T19:04:47.661Z,49.89
2023-05-05T19:09:50.745Z,50.16
2023-05-05T19:14:53.730Z,50.28
2023-05-05T19:19:56.716Z,50.32
2023-05-05T19:24:59.708Z,50.70
2023-05-05T19:30:07.534Z,50.85
2023-05-05T19:35:11.900Z,51.12
2023-05-05T19:40:15.089Z,51.20
2023-05-05T19:45:18.225Z,51.28
2023-05-05T19:50:21.781Z,51.30
2023-05-05T19:55:24.605Z,51.56
2023-05-05T20:00:27.687Z,51.25
2023-05-05T20:05:30.950Z,51.42
2023-05-05T20:10:34.445Z,51.46
2023-05-05T20:15:37.313Z,51.68
2023-05-05T20:20:40.677Z,51.82
2023-05-05T20:25:43.641Z,51.90
2023-05-05T20:30:46.788Z,51.96
2023-05-05T20:35:49.780Z,52.13
2023-05-05T20:40:52.853Z,52.17
2023-05-05T20:45:55.837Z,52.24
2023-05-05T20:50:58.983Z,52.39
2023-05-05T20:56:02.038Z,52.34
2023-05-05T21:01:05.095Z,52.54
2023-05-05T21:06:08.084Z,52.72
2023-05-05T21:11:11.070Z,52.55
2023-05-05T21:16:14.186Z,52.81
2023-05-05T21:21:17.326Z,52.90
2023-05-05T21:26:21.062Z,53.05
2023-05-05T21:31:24.052Z,53.02
2023-05-05T21:36:27.478Z,53.49
2023-05-05T21:41:30.819Z,53.49
2023-05-05T21:46:33.960Z,53.75
2023-05-05T21:51:37.391Z,53.78
2023-05-05T21:56:40.370Z,54.21
2023-05-05T22:01:43.388Z,54.10
2023-05-05T22:06:46.376Z,54.25
2023-05-05T22:11:49.414Z,54.60
2023-05-05T22:16:52.660Z,54.82
2023-05-05T22:21:57.456Z,54.82
2023-05-05T22:27:00.472Z,55.00
2023-05-05T22:32:03.482Z,55.18
2023-05-05T22:37:06.476Z,55.15
2023-05-05T22:42:09.616Z,55.44
2023-05-05T22:47:13.389Z,55.36
2023-05-05T22:52:16.376Z,55.49
2023-05-05T22:57:19.410Z,55.71
2023-05-05T23:02:22.478Z,56.13
2023-05-05T23:07:25.583Z,56.02
2023-05-05T23:12:28.623Z,56.18
2023-05-05T23:17:31.628Z,56.28
2023-05-05T23:22:34.589Z,56.27
2023-05-05T23:27:40.037Z,56.45
2023-05-05T23:32:44.970Z,56.82
2023-05-05T23:37:48.033Z,56.69
2023-05-05T23:42:51.028Z,56.95
2023-05-05T23:47:54.248Z,57.08
2023-05-05T23:52:57.299Z,56.98
2023-05-05T23:58:00.268Z,56.72
